Clarkston, MI (48348)

10:18 PM EST on December 26, 2014 (GMT -0500)
@ Trillium Hill | Change Station
CLOSE
Current Station
Personal Weather Station
Location: Clarkston: NE Springfield Twp, MI
Elevation: 1210 ft
Nearby Weather Stations

Elev 1210 ft 42.78 °N, 83.48 °W | Updated 35 seconds ago

Partly Cloudy
Partly Cloudy
38.7 °F
Feels Like 39 °F
N
1.6
Wind Variable Wind from SSE
Gusts 2.0 mph

Today
High -- | Low -- °F
--% Chance of Precip.
Yesterday
High -- | Low -- °F
Precip. -- in
8:02 AM 5:05 PM
Waxing Crescent, 32% visible
Pressure 30.10 in
Visibility 10.0 miles
Clouds Mostly Cloudy 2300 ft
Mostly Cloudy 10000 ft
Overcast 16000 ft
Windchill 39 °F
Dew Point 34 °F
Humidity 85%
Rainfall 0.00 in
Snow Depth Not available.
UV 0 out of 12
Pollen .10 out of 12
Air Quality Not available.
Flu Activity Not available.
SPECI KPTK 270306Z 00000KT 10SM BKN023 BKN100 OVC160 04/03 A3010 RMK AO2 T00440028 $

More Conditions Fewer Conditions

Pressure 30.10 in
Visibility 10.0 miles
Clouds Mostly Cloudy 2300 ft
Mostly Cloudy 10000 ft
Overcast 16000 ft
Windchill 39 °F
Dew Point 34 °F
Humidity 85%
Rainfall 0.00 in
Snow Depth Not available.
UV 0 out of 12
Pollen .10 out of 12
Air Quality Not available.
Flu Activity Not available.
SPECI KPTK 270306Z 00000KT 10SM BKN023 BKN100 OVC160 04/03 A3010 RMK AO2 T00440028 $

More Conditions Fewer Conditions

10-Day Weather Forecast

Almanac

Astronomy

Dec. 26, 2014 Rise Set
Actual Time
Civil Twilight
Nautical Twilight
Astronomical Twilight
Moon
Length of Visible Light
Length of Day
Tomorrow will be .
, % of the Moon is Illuminated

Today's Extremes

State Highs State Lows

Community

WunderPhotos

Upload Photos

1,780,830 photos uploaded!

WunderBlogs® & News

Nearby

Air Quality

  Air Quality AQ Index Pollutant
Not available.

Snow Depth

Station Depth Elevation

Earthquake Activity

City Distance Mag. Time & Date
Minimum magnitude displayed is 2.5.

Coastal Water Temperatures

Place Temperature

Nearby Weather Stations